createdAt,value
2018-08-10T00:01:58.632Z,84.08
2018-08-10T00:04:26.995Z,83.70
2018-08-10T00:06:55.597Z,84.01
2018-08-10T00:09:23.964Z,84.74
2018-08-10T00:11:52.709Z,84.29
2018-08-10T00:14:21.052Z,84.54
2018-08-10T00:16:49.430Z,85.07
2018-08-10T00:19:17.828Z,84.92
2018-08-10T00:21:46.219Z,83.92
2018-08-10T00:24:14.591Z,83.73
2018-08-10T00:26:43.022Z,84.00
2018-08-10T00:29:11.448Z,82.12
2018-08-10T00:31:39.827Z,79.89
2018-08-10T00:34:08.184Z,79.35
2018-08-10T00:36:36.596Z,76.70
2018-08-10T00:39:09.092Z,76.15
2018-08-10T00:41:38.016Z,75.94
2018-08-10T00:44:06.447Z,74.07
2018-08-10T00:46:34.854Z,75.29
2018-08-10T00:49:03.198Z,74.70
2018-08-10T00:51:31.609Z,74.72
2018-08-10T00:54:00.069Z,74.11
2018-08-10T00:56:28.478Z,73.26
2018-08-10T00:58:56.877Z,73.10
2018-08-10T01:01:25.302Z,72.96
2018-08-10T01:03:53.697Z,71.87
2018-08-10T01:06:22.126Z,73.09
2018-08-10T01:08:50.564Z,72.33
2018-08-10T01:11:18.991Z,71.47
2018-08-10T01:13:47.674Z,71.71
2018-08-10T01:16:16.004Z,69.48
2018-08-10T01:18:44.392Z,70.33
2018-08-10T01:21:12.804Z,69.60
2018-08-10T01:23:41.139Z,72.92
2018-08-10T01:26:09.592Z,70.75
2018-08-10T01:28:38.062Z,72.07
2018-08-10T01:31:06.435Z,71.18
2018-08-10T01:33:34.824Z,72.16
2018-08-10T01:36:03.204Z,71.60
2018-08-10T01:38:31.631Z,70.86
2018-08-10T01:40:59.984Z,71.01
2018-08-10T01:43:28.386Z,71.21
2018-08-10T01:45:56.797Z,72.27
2018-08-10T01:48:25.218Z,72.37
2018-08-10T01:50:53.611Z,72.13
2018-08-10T01:53:21.954Z,71.27
2018-08-10T01:55:50.347Z,72.16
2018-08-10T01:58:18.711Z,72.15
2018-08-10T02:00:47.076Z,72.52
2018-08-10T02:03:15.460Z,73.09
2018-08-10T02:05:43.867Z,72.96
2018-08-10T02:08:12.279Z,73.59
2018-08-10T02:10:40.658Z,73.59
2018-08-10T02:13:09.035Z,73.27
2018-08-10T02:15:37.472Z,73.31
2018-08-10T02:18:05.839Z,74.48
2018-08-10T02:20:34.278Z,73.55
2018-08-10T02:23:03.122Z,74.88
2018-08-10T02:25:31.636Z,74.73
2018-08-10T02:27:59.983Z,75.01
2018-08-10T02:30:28.348Z,74.31
2018-08-10T02:32:56.728Z,76.42
2018-08-10T02:35:25.064Z,74.82
2018-08-10T02:37:53.422Z,74.18
2018-08-10T02:40:55.551Z,74.68
2018-08-10T02:43:23.968Z,74.45
2018-08-10T02:45:52.336Z,75.19
2018-08-10T02:48:20.690Z,74.62
2018-08-10T02:50:49.183Z,75.98
2018-08-10T02:53:17.559Z,75.62
2018-08-10T02:55:45.923Z,75.37
2018-08-10T02:58:14.295Z,76.30
2018-08-10T03:00:42.612Z,75.54
2018-08-10T03:03:10.997Z,77.71
2018-08-10T03:05:39.437Z,75.76
2018-08-10T03:08:07.837Z,75.58
2018-08-10T03:10:36.484Z,75.99
2018-08-10T03:13:04.816Z,76.33
2018-08-10T03:15:33.178Z,76.13
2018-08-10T03:18:03.011Z,75.55
2018-08-10T03:20:31.344Z,75.56
2018-08-10T03:22:59.913Z,77.38
2018-08-10T03:25:28.469Z,77.38
2018-08-10T03:27:56.819Z,77.09
2018-08-10T03:30:25.215Z,77.52
2018-08-10T03:32:53.621Z,77.99
2018-08-10T03:35:22.013Z,77.84
2018-08-10T03:37:50.415Z,78.23
2018-08-10T03:40:18.777Z,78.92
2018-08-10T03:42:47.112Z,78.46
2018-08-10T03:45:15.471Z,78.20
2018-08-10T03:47:43.813Z,77.99
2018-08-10T03:50:13.643Z,78.80
2018-08-10T03:52:42.594Z,78.34
2018-08-10T03:55:11.328Z,78.33
2018-08-10T03:57:40.142Z,78.38
2018-08-10T04:00:10.644Z,79.17
2018-08-10T04:02:39.644Z,78.83
2018-08-10T04:05:08.756Z,79.15
2018-08-10T04:07:37.149Z,78.58
2018-08-10T04:10:06.336Z,79.62
2018-08-10T04:12:35.191Z,79.97
2018-08-10T04:15:03.670Z,80.20
2018-08-10T04:17:32.048Z,79.41
2018-08-10T04:20:00.854Z,78.71
2018-08-10T04:22:29.339Z,78.54
2018-08-10T04:24:57.759Z,79.64
2018-08-10T04:27:26.173Z,77.90
2018-08-10T04:29:54.933Z,78.67
2018-08-10T04:32:23.628Z,77.95
2018-08-10T04:34:51.973Z,77.40
2018-08-10T04:37:20.375Z,78.27
2018-08-10T04:39:49.038Z,77.45
2018-08-10T04:42:17.626Z,77.51
2018-08-10T04:44:46.574Z,78.65
2018-08-10T04:47:14.957Z,77.52
2018-08-10T04:49:43.312Z,76.32
2018-08-10T04:52:11.683Z,76.79
2018-08-10T04:54:40.035Z,76.59
2018-08-10T04:57:08.562Z,76.65
2018-08-10T04:59:37.377Z,76.33
2018-08-10T05:02:06.682Z,76.97
2018-08-10T05:04:35.063Z,76.12
2018-08-10T05:07:03.659Z,76.66
2018-08-10T05:09:31.986Z,76.55
2018-08-10T05:12:00.444Z,76.12
2018-08-10T05:14:28.834Z,76.11
2018-08-10T05:16:57.170Z,75.79
2018-08-10T05:19:25.566Z,76.58
2018-08-10T05:21:54.184Z,76.27
2018-08-10T05:24:22.585Z,75.72
2018-08-10T05:26:50.956Z,75.79
2018-08-10T05:29:19.360Z,75.64
2018-08-10T05:31:47.679Z,76.34
2018-08-10T05:34:16.039Z,75.80
2018-08-10T05:36:44.387Z,75.44
2018-08-10T05:39:13.219Z,75.63
2018-08-10T05:41:41.700Z,75.01
2018-08-10T05:44:10.070Z,75.67
2018-08-10T05:46:38.710Z,75.22
2018-08-10T05:49:07.250Z,74.43
2018-08-10T05:51:35.588Z,74.65
2018-08-10T05:54:04.092Z,72.69
2018-08-10T05:56:32.727Z,74.44
2018-08-10T05:59:01.095Z,73.70
2018-08-10T06:01:29.772Z,72.98
2018-08-10T06:03:58.321Z,74.82
2018-08-10T06:06:26.484Z,73.99
2018-08-10T06:08:54.854Z,73.68
2018-08-10T06:11:23.295Z,72.37
2018-08-10T06:13:51.691Z,73.14
2018-08-10T06:16:20.006Z,73.53
2018-08-10T06:18:48.344Z,72.80
2018-08-10T06:21:16.683Z,72.04
2018-08-10T06:23:45.235Z,72.48
2018-08-10T06:26:13.589Z,72.87
2018-08-10T06:28:41.875Z,71.78
2018-08-10T06:31:10.261Z,71.94
2018-08-10T06:33:38.641Z,70.72
2018-08-10T06:36:07.030Z,71.21
2018-08-10T06:38:35.415Z,70.05
2018-08-10T06:41:03.784Z,69.42
2018-08-10T06:43:32.225Z,68.91
2018-08-10T06:46:00.616Z,69.11
2018-08-10T06:48:28.931Z,68.58
2018-08-10T06:50:57.338Z,68.97
2018-08-10T06:53:25.686Z,66.33
2018-08-10T06:55:54.146Z,67.60
2018-08-10T06:58:22.502Z,68.35
2018-08-10T07:00:51.914Z,66.85
2018-08-10T07:03:20.331Z,67.18
2018-08-10T07:05:48.754Z,65.45
2018-08-10T07:08:17.148Z,64.00
2018-08-10T07:10:45.592Z,61.70
2018-08-10T07:13:13.996Z,61.50
2018-08-10T07:15:42.292Z,62.67
2018-08-10T07:18:10.668Z,61.69
2018-08-10T07:20:39.020Z,62.13
2018-08-10T07:23:07.381Z,63.53
2018-08-10T07:25:35.890Z,62.40
2018-08-10T07:28:04.239Z,63.52
2018-08-10T07:30:32.593Z,63.97
2018-08-10T07:33:00.981Z,63.10
2018-08-10T07:35:29.314Z,63.28
2018-08-10T07:37:57.729Z,62.43
2018-08-10T07:40:26.112Z,63.39
2018-08-10T07:42:54.527Z,62.91
2018-08-10T07:45:22.875Z,60.84
2018-08-10T07:47:51.258Z,61.08
2018-08-10T07:50:19.561Z,62.35
2018-08-10T07:52:47.990Z,62.97
2018-08-10T07:55:16.447Z,64.16
2018-08-10T07:57:44.835Z,62.09
2018-08-10T08:00:13.256Z,62.90
2018-08-10T08:02:41.628Z,62.89
2018-08-10T08:05:10.029Z,63.08
2018-08-10T08:07:38.345Z,61.81
2018-08-10T08:10:07.051Z,61.98
2018-08-10T08:12:35.412Z,59.86
2018-08-10T08:15:03.973Z,58.34
2018-08-10T08:17:32.288Z,58.17
2018-08-10T08:20:00.982Z,57.04
2018-08-10T08:22:29.363Z,57.84
2018-08-10T08:24:57.680Z,57.92
2018-08-10T08:27:26.043Z,57.57
2018-08-10T08:29:54.417Z,57.42
2018-08-10T08:32:22.796Z,56.21
2018-08-10T08:34:51.367Z,56.79
2018-08-10T08:37:19.616Z,56.80
2018-08-10T08:40:23.130Z,58.10
2018-08-10T08:42:51.967Z,56.29
2018-08-10T08:46:07.840Z,55.86
2018-08-10T08:48:45.625Z,56.84
2018-08-10T08:51:15.788Z,56.42
2018-08-10T08:53:44.171Z,54.92
2018-08-10T08:56:18.583Z,58.27
2018-08-10T08:58:48.415Z,56.14
2018-08-10T09:01:17.466Z,55.93
2018-08-10T09:05:03.892Z,55.48
2018-08-10T09:07:32.741Z,55.16
2018-08-10T09:10:02.139Z,56.45
2018-08-10T09:12:31.113Z,56.49
2018-08-10T09:15:02.047Z,55.62
2018-08-10T09:17:30.681Z,56.86
2018-08-10T09:19:59.019Z,56.62
2018-08-10T09:22:27.494Z,57.78
2018-08-10T09:24:55.950Z,56.53
2018-08-10T09:27:24.530Z,58.47
2018-08-10T09:29:52.899Z,57.26
2018-08-10T09:32:21.354Z,56.87
2018-08-10T09:34:49.718Z,57.44
2018-08-10T09:37:18.159Z,55.40
2018-08-10T09:39:46.509Z,57.46
2018-08-10T09:42:14.959Z,56.67
2018-08-10T09:44:43.285Z,56.75
2018-08-10T09:47:11.716Z,54.94
2018-08-10T09:49:42.998Z,55.83
2018-08-10T09:52:11.460Z,54.80
2018-08-10T09:55:44.951Z,53.93
2018-08-10T09:58:15.212Z,54.54
2018-08-10T10:00:48.757Z,54.61
2018-08-10T10:03:18.555Z,56.04
2018-08-10T10:05:47.747Z,53.65
2018-08-10T10:08:16.727Z,52.43
2018-08-10T10:10:45.498Z,53.21
2018-08-10T10:13:13.835Z,54.42
2018-08-10T10:15:42.802Z,52.80
2018-08-10T10:18:12.543Z,52.29
2018-08-10T10:20:40.947Z,51.83
2018-08-10T10:23:09.499Z,52.95
2018-08-10T10:25:37.860Z,54.29
2018-08-10T10:28:06.462Z,53.74
2018-08-10T10:30:34.862Z,52.42
2018-08-10T10:33:03.262Z,53.88
2018-08-10T10:35:31.697Z,52.62
2018-08-10T10:38:00.104Z,52.99
2018-08-10T10:40:28.515Z,50.74
2018-08-10T10:42:57.053Z,50.71
2018-08-10T10:45:25.425Z,50.50
2018-08-10T10:47:53.815Z,50.30
2018-08-10T10:50:22.192Z,50.93
2018-08-10T10:52:50.900Z,49.35
2018-08-10T10:55:19.375Z,49.30
2018-08-10T10:57:48.143Z,50.15
2018-08-10T11:00:18.503Z,51.28
2018-08-10T11:02:47.450Z,50.35
2018-08-10T11:05:15.927Z,47.60
2018-08-10T11:07:44.580Z,49.25
2018-08-10T11:10:14.731Z,48.20
2018-08-10T11:12:43.100Z,48.01
2018-08-10T11:15:12.521Z,47.83
2018-08-10T11:17:40.972Z,49.47
2018-08-10T11:20:11.142Z,49.88
2018-08-10T11:22:40.653Z,50.68
2018-08-10T11:25:10.994Z,50.34
2018-08-10T11:27:40.055Z,49.45
2018-08-10T11:30:09.546Z,48.56
2018-08-10T11:32:38.262Z,49.48
2018-08-10T11:35:13.413Z,48.17
2018-08-10T11:37:43.100Z,47.89
2018-08-10T11:40:13.523Z,50.17
2018-08-10T11:42:42.820Z,50.07
2018-08-10T11:45:13.803Z,47.71
2018-08-10T11:47:42.882Z,47.06
2018-08-10T11:50:11.378Z,43.97
2018-08-10T11:52:40.215Z,45.72
2018-08-10T11:55:10.898Z,44.41
2018-08-10T11:57:40.219Z,45.35
2018-08-10T12:00:10.667Z,44.29
2018-08-10T12:02:39.309Z,44.13
2018-08-10T12:05:09.321Z,42.94
2018-08-10T12:07:37.726Z,42.63
2018-08-10T12:10:06.887Z,43.74
2018-08-10T12:12:35.447Z,42.89
2018-08-10T12:15:04.282Z,42.85
2018-08-10T12:17:33.340Z,43.22
2018-08-10T12:20:01.777Z,42.70
2018-08-10T12:22:30.230Z,41.92
2018-08-10T12:24:58.712Z,42.39
2018-08-10T12:27:27.024Z,42.75
2018-08-10T12:29:55.591Z,42.51
2018-08-10T12:32:24.154Z,44.19
2018-08-10T12:34:52.588Z,42.00
2018-08-10T12:37:21.116Z,42.05
2018-08-10T12:39:49.566Z,43.28
2018-08-10T12:42:17.961Z,42.37
2018-08-10T12:44:46.339Z,41.34
2018-08-10T12:47:14.802Z,43.33
2018-08-10T12:49:43.323Z,41.89
2018-08-10T12:52:11.846Z,42.63
2018-08-10T12:54:40.389Z,42.35
2018-08-10T12:57:08.893Z,41.55
2018-08-10T12:59:37.279Z,42.63
2018-08-10T13:02:05.924Z,42.59
2018-08-10T13:04:34.340Z,41.07
2018-08-10T13:07:03.098Z,42.02
2018-08-10T13:09:31.597Z,40.53
2018-08-10T13:12:00.079Z,40.88
2018-08-10T13:14:28.568Z,40.91
2018-08-10T13:16:57.044Z,42.30
2018-08-10T13:19:25.406Z,42.53
2018-08-10T13:21:53.915Z,41.06
2018-08-10T13:24:22.221Z,39.50
2018-08-10T13:26:50.671Z,40.31
2018-08-10T13:29:19.199Z,39.01
2018-08-10T13:31:47.652Z,40.68
2018-08-10T13:34:16.330Z,40.00
2018-08-10T13:36:44.902Z,39.69
2018-08-10T13:39:13.490Z,39.83
2018-08-10T13:41:42.835Z,40.68
2018-08-10T13:44:11.865Z,40.14
2018-08-10T13:46:40.392Z,40.42
2018-08-10T13:49:08.995Z,40.05
2018-08-10T13:51:37.437Z,39.03
2018-08-10T13:54:06.481Z,39.59
2018-08-10T13:56:35.384Z,39.79
2018-08-10T13:59:03.762Z,40.46
2018-08-10T14:01:32.986Z,40.31
2018-08-10T14:04:01.502Z,39.08
2018-08-10T14:06:30.477Z,39.48
2018-08-10T14:08:59.465Z,40.93
2018-08-10T14:11:28.516Z,38.36
2018-08-10T14:13:56.895Z,39.02
2018-08-10T14:16:25.432Z,38.63
2018-08-10T14:18:54.026Z,39.47
2018-08-10T14:21:22.541Z,38.99
2018-08-10T14:23:50.940Z,38.83
2018-08-10T14:26:19.317Z,39.56
2018-08-10T14:28:48.135Z,39.43
2018-08-10T14:31:16.515Z,40.17
2018-08-10T14:33:44.875Z,38.54
2018-08-10T14:36:13.289Z,38.35
2018-08-10T14:38:41.749Z,39.14
2018-08-10T14:41:10.185Z,38.38
2018-08-10T14:43:38.589Z,37.57
2018-08-10T14:46:07.020Z,37.15
2018-08-10T14:48:35.410Z,39.06
2018-08-10T14:51:03.918Z,38.24
2018-08-10T14:53:32.593Z,38.38
2018-08-10T14:56:01.177Z,38.64
2018-08-10T14:58:29.630Z,38.61
2018-08-10T15:00:57.980Z,38.52
2018-08-10T15:03:26.362Z,37.76
2018-08-10T15:05:54.738Z,38.31
2018-08-10T15:08:23.050Z,39.28
2018-08-10T15:10:51.431Z,40.00
2018-08-10T15:13:19.800Z,39.10
2018-08-10T15:15:48.185Z,39.70
2018-08-10T15:18:16.602Z,39.39
2018-08-10T15:20:45.059Z,38.09
2018-08-10T15:23:13.501Z,38.46
2018-08-10T15:25:41.910Z,39.88
2018-08-10T15:28:10.285Z,37.98
2018-08-10T15:30:38.674Z,38.60
2018-08-10T15:33:07.127Z,38.86
2018-08-10T15:35:35.560Z,40.30
2018-08-10T15:38:04.058Z,39.26
2018-08-10T15:40:32.474Z,40.99
2018-08-10T15:43:00.894Z,38.25
2018-08-10T15:45:29.249Z,39.27
2018-08-10T15:47:57.624Z,38.85
2018-08-10T15:50:26.359Z,39.27
2018-08-10T15:52:54.704Z,40.80
2018-08-10T15:55:23.167Z,40.86
2018-08-10T15:57:51.514Z,39.98
2018-08-10T16:00:23.112Z,38.68
2018-08-10T16:02:51.536Z,39.99
2018-08-10T16:05:19.953Z,39.61
2018-08-10T16:07:48.391Z,37.51
2018-08-10T16:10:17.183Z,38.29
2018-08-10T16:12:45.946Z,38.09
2018-08-10T16:15:15.575Z,38.75
2018-08-10T16:17:43.998Z,38.24
2018-08-10T16:20:14.570Z,39.60
2018-08-10T16:22:42.948Z,38.70
2018-08-10T16:25:12.316Z,37.70
2018-08-10T16:27:41.618Z,37.20
2018-08-10T16:30:11.958Z,37.11
2018-08-10T16:32:41.429Z,38.44
2018-08-10T16:35:11.889Z,39.71
2018-08-10T16:37:41.480Z,37.76
2018-08-10T16:40:10.892Z,38.54
2018-08-10T16:42:40.479Z,38.46
2018-08-10T16:45:09.588Z,37.80
2018-08-10T16:47:38.984Z,38.41
2018-08-10T16:50:10.031Z,37.81
2018-08-10T16:52:38.547Z,39.60
2018-08-10T16:55:09.295Z,40.35
2018-08-10T16:57:38.377Z,39.29
2018-08-10T17:00:08.138Z,40.76
2018-08-10T17:02:36.646Z,40.08
2018-08-10T17:05:05.994Z,39.12
2018-08-10T17:07:34.395Z,39.60
2018-08-10T17:10:02.758Z,40.09
2018-08-10T17:12:31.164Z,42.62
2018-08-10T17:14:59.584Z,41.30
2018-08-10T17:17:28.093Z,40.64
2018-08-10T17:19:56.607Z,41.04
2018-08-10T17:22:25.336Z,40.99
2018-08-10T17:24:53.711Z,41.49
2018-08-10T17:27:22.095Z,41.74
2018-08-10T17:29:50.507Z,42.11
2018-08-10T17:32:18.896Z,42.72
2018-08-10T17:34:47.295Z,42.11
2018-08-10T17:37:15.798Z,40.62
2018-08-10T17:39:44.466Z,42.47
2018-08-10T17:42:13.088Z,43.22
2018-08-10T17:44:41.449Z,42.53
2018-08-10T17:47:09.827Z,42.27
2018-08-10T17:49:38.181Z,41.76
2018-08-10T17:52:06.612Z,41.75
2018-08-10T17:54:35.115Z,43.24
2018-08-10T17:57:03.537Z,42.70
2018-08-10T17:59:31.942Z,42.73
2018-08-10T18:02:00.383Z,42.08
2018-08-10T18:04:28.763Z,42.16
2018-08-10T18:06:57.107Z,41.99
2018-08-10T18:09:25.542Z,42.41
2018-08-10T18:11:53.957Z,44.30
2018-08-10T18:14:23.193Z,42.68
2018-08-10T18:16:51.599Z,43.32
2018-08-10T18:19:20.052Z,43.66
2018-08-10T18:21:48.482Z,44.62
2018-08-10T18:24:17.317Z,44.46
2018-08-10T18:26:46.290Z,44.09
2018-08-10T18:29:15.542Z,44.94
2018-08-10T18:31:44.576Z,45.41
2018-08-10T18:34:13.333Z,47.05
2018-08-10T18:36:41.727Z,46.89
2018-08-10T18:39:12.430Z,48.45
2018-08-10T18:41:41.836Z,48.54
2018-08-10T18:44:11.094Z,48.65
2018-08-10T18:46:40.240Z,50.62
2018-08-10T18:49:09.908Z,50.92
2018-08-10T18:51:38.532Z,52.06
2018-08-10T18:54:07.491Z,53.50
2018-08-10T18:56:36.318Z,52.39
2018-08-10T18:59:05.032Z,53.25
2018-08-10T19:01:33.782Z,53.80
2018-08-10T19:04:02.292Z,53.06
2018-08-10T19:06:30.831Z,54.42
2018-08-10T19:09:00.513Z,55.39
2018-08-10T19:11:29.023Z,54.61
2018-08-10T19:13:58.136Z,55.16
2018-08-10T19:16:26.868Z,54.51
2018-08-10T19:18:55.359Z,55.37
2018-08-10T19:21:23.889Z,55.33
2018-08-10T19:23:52.340Z,56.09
2018-08-10T19:26:22.694Z,56.02
2018-08-10T19:28:54.529Z,56.14
2018-08-10T19:33:54.187Z,55.66
2018-08-10T19:36:23.458Z,56.31
2018-08-10T19:38:52.248Z,57.59
2018-08-10T19:41:20.944Z,57.51
2018-08-10T19:43:49.496Z,59.00
2018-08-10T19:46:18.198Z,57.44
2018-08-10T19:48:46.662Z,56.93
2018-08-10T19:51:15.076Z,57.11
2018-08-10T19:53:45.833Z,59.23
2018-08-10T19:56:14.576Z,58.42
2018-08-10T19:58:43.144Z,58.22
2018-08-10T20:01:11.935Z,56.93
2018-08-10T20:03:40.839Z,56.35
2018-08-10T20:06:09.309Z,57.76
2018-08-10T20:08:41.225Z,56.50
2018-08-10T20:11:17.990Z,57.19
2018-08-10T20:13:50.180Z,59.14
2018-08-10T20:17:03.238Z,58.07
2018-08-10T20:19:36.623Z,57.78
2018-08-10T20:22:14.797Z,57.88
2018-08-10T20:24:50.542Z,56.31
2018-08-10T20:27:20.952Z,56.79
2018-08-10T20:29:52.411Z,57.77
2018-08-10T20:32:25.035Z,56.59
2018-08-10T20:34:53.458Z,56.89
2018-08-10T20:37:21.857Z,56.66
2018-08-10T20:39:50.925Z,55.29
2018-08-10T20:42:19.310Z,55.92
2018-08-10T20:44:48.445Z,56.91
2018-08-10T20:47:16.949Z,58.91
2018-08-10T20:49:45.361Z,58.12
2018-08-10T20:52:15.445Z,59.46
2018-08-10T20:54:44.136Z,59.58
2018-08-10T20:57:12.878Z,60.56
2018-08-10T20:59:41.471Z,61.03
2018-08-10T21:02:10.121Z,60.71
2018-08-10T21:04:38.486Z,60.91
2018-08-10T21:07:07.122Z,62.32
2018-08-10T21:09:35.519Z,62.36
2018-08-10T21:12:03.911Z,63.34
2018-08-10T21:14:32.259Z,63.87
2018-08-10T21:17:00.605Z,63.92
2018-08-10T21:19:28.994Z,64.03
2018-08-10T21:21:57.393Z,64.19
2018-08-10T21:24:25.805Z,63.68
2018-08-10T21:26:54.293Z,63.42
2018-08-10T21:29:22.643Z,63.77
2018-08-10T21:31:51.000Z,64.13
2018-08-10T21:34:19.398Z,63.77
2018-08-10T21:36:48.054Z,63.55
2018-08-10T21:39:16.460Z,64.37
2018-08-10T21:41:44.882Z,64.11
2018-08-10T21:44:13.275Z,64.27
2018-08-10T21:46:41.721Z,65.87
2018-08-10T21:49:10.540Z,65.22
2018-08-10T21:51:38.917Z,63.47
2018-08-10T21:54:07.269Z,65.30
2018-08-10T21:56:35.579Z,64.85
2018-08-10T21:59:04.014Z,63.11
2018-08-10T22:01:32.543Z,65.01
2018-08-10T22:04:02.710Z,64.85
2018-08-10T22:06:31.901Z,65.60
2018-08-10T22:09:00.377Z,66.88
2018-08-10T22:11:28.761Z,66.22
2018-08-10T22:14:02.460Z,63.67
2018-08-10T22:16:36.130Z,64.29
2018-08-10T22:19:09.885Z,62.87
2018-08-10T22:21:38.322Z,63.20
2018-08-10T22:24:06.760Z,65.03
2018-08-10T22:26:35.128Z,65.13
2018-08-10T22:29:04.091Z,66.13
2018-08-10T22:31:32.575Z,66.43
2018-08-10T22:34:01.270Z,66.44
2018-08-10T22:36:29.733Z,65.73
2018-08-10T22:38:58.154Z,66.20
2018-08-10T22:41:26.515Z,64.73
2018-08-10T22:43:54.869Z,65.67
2018-08-10T22:46:23.311Z,66.32
2018-08-10T22:48:51.641Z,66.61
2018-08-10T22:51:20.006Z,63.84
2018-08-10T22:53:48.406Z,65.93
2018-08-10T22:56:16.819Z,65.43
2018-08-10T22:58:45.218Z,66.44
2018-08-10T23:01:13.598Z,66.02
2018-08-10T23:03:41.980Z,66.28
2018-08-10T23:06:10.610Z,66.68
2018-08-10T23:08:39.037Z,66.55
2018-08-10T23:11:07.411Z,66.47
2018-08-10T23:13:35.913Z,66.61
2018-08-10T23:16:04.382Z,64.76
2018-08-10T23:18:32.760Z,65.57
2018-08-10T23:21:01.148Z,65.37
2018-08-10T23:23:29.594Z,66.47
2018-08-10T23:25:57.940Z,66.55
2018-08-10T23:28:26.318Z,66.31
2018-08-10T23:30:54.828Z,65.53
2018-08-10T23:33:23.464Z,66.42
2018-08-10T23:35:52.070Z,63.22
2018-08-10T23:38:20.490Z,62.04
2018-08-10T23:40:48.872Z,62.38
2018-08-10T23:43:17.333Z,63.89
2018-08-10T23:45:45.728Z,64.97
2018-08-10T23:48:14.115Z,65.50
2018-08-10T23:50:42.496Z,65.55
2018-08-10T23:53:10.870Z,64.58
2018-08-10T23:55:39.268Z,66.98
2018-08-10T23:58:07.835Z,64.87
